sensor_id;sensor_type;location;lat;lon;timestamp;P1;durP1;ratioP1;P2;durP2;ratioP2
52508;SDS011;38420;53.150;6.370;2023-04-09T00:01:08;79.32;;;43.38;;
52508;SDS011;38420;53.150;6.370;2023-04-09T00:03:34;76.35;;;42.47;;
52508;SDS011;38420;53.150;6.370;2023-04-09T00:06:01;82.78;;;47.28;;
52508;SDS011;38420;53.150;6.370;2023-04-09T00:08:27;82.25;;;43.83;;
52508;SDS011;38420;53.150;6.370;2023-04-09T00:10:53;79.93;;;44.67;;
52508;SDS011;38420;53.150;6.370;2023-04-09T00:13:19;85.00;;;44.22;;
52508;SDS011;38420;53.150;6.370;2023-04-09T00:15:45;84.07;;;46.28;;
52508;SDS011;38420;53.150;6.370;2023-04-09T00:18:11;89.28;;;48.47;;
52508;SDS011;38420;53.150;6.370;2023-04-09T00:20:37;83.13;;;45.47;;
52508;SDS011;38420;53.150;6.370;2023-04-09T00:23:03;84.80;;;46.17;;
52508;SDS011;38420;53.150;6.370;2023-04-09T00:25:28;84.18;;;46.03;;
52508;SDS011;38420;53.150;6.370;2023-04-09T00:27:54;87.40;;;47.40;;
52508;SDS011;38420;53.150;6.370;2023-04-09T00:30:20;85.15;;;46.22;;
52508;SDS011;38420;53.150;6.370;2023-04-09T00:32:46;86.57;;;46.13;;
52508;SDS011;38420;53.150;6.370;2023-04-09T00:35:12;92.72;;;47.92;;
52508;SDS011;38420;53.150;6.370;2023-04-09T00:37:38;92.43;;;47.63;;
52508;SDS011;38420;53.150;6.370;2023-04-09T00:40:04;90.30;;;45.67;;
52508;SDS011;38420;53.150;6.370;2023-04-09T00:42:31;91.35;;;47.67;;
52508;SDS011;38420;53.150;6.370;2023-04-09T00:44:57;95.93;;;50.22;;
52508;SDS011;38420;53.150;6.370;2023-04-09T00:47:23;87.32;;;46.95;;
52508;SDS011;38420;53.150;6.370;2023-04-09T00:49:49;89.63;;;47.50;;
52508;SDS011;38420;53.150;6.370;2023-04-09T00:52:15;95.45;;;48.40;;
52508;SDS011;38420;53.150;6.370;2023-04-09T00:54:40;91.47;;;46.85;;
52508;SDS011;38420;53.150;6.370;2023-04-09T00:57:06;96.55;;;47.42;;
52508;SDS011;38420;53.150;6.370;2023-04-09T00:59:31;96.28;;;49.08;;
52508;SDS011;38420;53.150;6.370;2023-04-09T01:01:57;99.47;;;49.60;;
52508;SDS011;38420;53.150;6.370;2023-04-09T01:04:23;98.78;;;49.35;;
52508;SDS011;38420;53.150;6.370;2023-04-09T01:06:52;94.43;;;47.85;;
52508;SDS011;38420;53.150;6.370;2023-04-09T01:09:29;91.68;;;48.25;;
52508;SDS011;38420;53.150;6.370;2023-04-09T01:12:04;87.15;;;46.22;;
52508;SDS011;38420;53.150;6.370;2023-04-09T01:15:07;86.93;;;45.30;;
52508;SDS011;38420;53.150;6.370;2023-04-09T01:20:17;90.20;;;44.95;;
52508;SDS011;38420;53.150;6.370;2023-04-09T01:23:04;89.05;;;44.10;;
52508;SDS011;38420;53.150;6.370;2023-04-09T01:25:46;87.97;;;44.25;;
52508;SDS011;38420;53.150;6.370;2023-04-09T01:28:35;87.53;;;46.20;;
52508;SDS011;38420;53.150;6.370;2023-04-09T01:31:07;88.47;;;44.95;;
52508;SDS011;38420;53.150;6.370;2023-04-09T01:33:37;87.95;;;42.60;;
52508;SDS011;38420;53.150;6.370;2023-04-09T01:36:05;85.78;;;43.53;;
52508;SDS011;38420;53.150;6.370;2023-04-09T01:38:32;86.28;;;45.25;;
52508;SDS011;38420;53.150;6.370;2023-04-09T01:41:00;81.82;;;41.95;;
52508;SDS011;38420;53.150;6.370;2023-04-09T01:43:27;81.53;;;41.20;;
52508;SDS011;38420;53.150;6.370;2023-04-09T01:45:55;82.20;;;41.10;;
52508;SDS011;38420;53.150;6.370;2023-04-09T01:48:23;83.38;;;42.00;;
52508;SDS011;38420;53.150;6.370;2023-04-09T01:50:50;80.72;;;41.20;;
52508;SDS011;38420;53.150;6.370;2023-04-09T01:53:15;78.50;;;39.38;;
52508;SDS011;38420;53.150;6.370;2023-04-09T01:55:42;81.93;;;41.80;;
52508;SDS011;38420;53.150;6.370;2023-04-09T01:58:07;75.93;;;40.70;;
52508;SDS011;38420;53.150;6.370;2023-04-09T02:00:44;78.68;;;39.60;;
52508;SDS011;38420;53.150;6.370;2023-04-09T02:03:25;84.00;;;41.92;;
52508;SDS011;38420;53.150;6.370;2023-04-09T02:06:43;77.32;;;40.33;;
52508;SDS011;38420;53.150;6.370;2023-04-09T02:08:51;78.20;;;38.28;;
52508;SDS011;38420;53.150;6.370;2023-04-09T02:11:17;81.90;;;40.55;;
52508;SDS011;38420;53.150;6.370;2023-04-09T02:13:45;62.10;;;33.17;;
52508;SDS011;38420;53.150;6.370;2023-04-09T02:16:13;60.63;;;31.15;;
52508;SDS011;38420;53.150;6.370;2023-04-09T02:18:40;56.85;;;30.33;;
52508;SDS011;38420;53.150;6.370;2023-04-09T02:21:06;61.85;;;31.40;;
52508;SDS011;38420;53.150;6.370;2023-04-09T02:23:32;55.72;;;29.58;;
52508;SDS011;38420;53.150;6.370;2023-04-09T02:25:58;62.60;;;32.15;;
52508;SDS011;38420;53.150;6.370;2023-04-09T02:28:23;63.67;;;32.90;;
52508;SDS011;38420;53.150;6.370;2023-04-09T02:30:49;63.53;;;32.22;;
52508;SDS011;38420;53.150;6.370;2023-04-09T02:33:15;63.00;;;32.00;;
52508;SDS011;38420;53.150;6.370;2023-04-09T02:35:40;61.13;;;32.63;;
52508;SDS011;38420;53.150;6.370;2023-04-09T02:38:07;56.20;;;31.88;;
52508;SDS011;38420;53.150;6.370;2023-04-09T02:40:38;61.35;;;31.40;;
52508;SDS011;38420;53.150;6.370;2023-04-09T02:43:04;56.95;;;31.70;;
52508;SDS011;38420;53.150;6.370;2023-04-09T02:45:30;59.67;;;32.78;;
52508;SDS011;38420;53.150;6.370;2023-04-09T02:47:56;61.80;;;32.88;;
52508;SDS011;38420;53.150;6.370;2023-04-09T02:50:21;61.50;;;31.10;;
52508;SDS011;38420;53.150;6.370;2023-04-09T02:52:47;57.92;;;30.58;;
52508;SDS011;38420;53.150;6.370;2023-04-09T02:55:13;57.13;;;31.27;;
52508;SDS011;38420;53.150;6.370;2023-04-09T02:57:39;62.88;;;32.60;;
52508;SDS011;38420;53.150;6.370;2023-04-09T03:00:05;63.42;;;30.52;;
52508;SDS011;38420;53.150;6.370;2023-04-09T03:02:31;58.13;;;30.95;;
52508;SDS011;38420;53.150;6.370;2023-04-09T03:04:57;56.40;;;29.55;;
52508;SDS011;38420;53.150;6.370;2023-04-09T03:07:22;53.72;;;30.00;;
52508;SDS011;38420;53.150;6.370;2023-04-09T03:09:48;55.00;;;30.17;;
52508;SDS011;38420;53.150;6.370;2023-04-09T03:12:13;58.97;;;31.40;;
52508;SDS011;38420;53.150;6.370;2023-04-09T03:14:39;57.13;;;29.23;;
52508;SDS011;38420;53.150;6.370;2023-04-09T03:17:04;61.97;;;31.38;;
52508;SDS011;38420;53.150;6.370;2023-04-09T03:19:30;61.00;;;30.77;;
52508;SDS011;38420;53.150;6.370;2023-04-09T03:21:56;60.45;;;30.30;;
52508;SDS011;38420;53.150;6.370;2023-04-09T03:24:21;57.40;;;31.20;;
52508;SDS011;38420;53.150;6.370;2023-04-09T03:26:47;57.15;;;30.55;;
52508;SDS011;38420;53.150;6.370;2023-04-09T03:29:12;57.05;;;30.38;;
52508;SDS011;38420;53.150;6.370;2023-04-09T03:31:38;56.83;;;29.05;;
52508;SDS011;38420;53.150;6.370;2023-04-09T03:34:03;54.65;;;29.42;;
52508;SDS011;38420;53.150;6.370;2023-04-09T03:36:29;55.55;;;29.80;;
52508;SDS011;38420;53.150;6.370;2023-04-09T03:38:55;56.05;;;30.10;;
52508;SDS011;38420;53.150;6.370;2023-04-09T03:41:21;55.40;;;29.45;;
52508;SDS011;38420;53.150;6.370;2023-04-09T03:43:46;58.60;;;30.20;;
52508;SDS011;38420;53.150;6.370;2023-04-09T03:46:15;56.85;;;28.75;;
52508;SDS011;38420;53.150;6.370;2023-04-09T03:48:42;58.15;;;30.67;;
52508;SDS011;38420;53.150;6.370;2023-04-09T03:51:14;56.20;;;30.63;;
52508;SDS011;38420;53.150;6.370;2023-04-09T03:53:40;53.53;;;29.58;;
52508;SDS011;38420;53.150;6.370;2023-04-09T03:56:06;55.42;;;29.60;;
52508;SDS011;38420;53.150;6.370;2023-04-09T03:58:32;56.45;;;29.20;;
52508;SDS011;38420;53.150;6.370;2023-04-09T04:00:59;54.10;;;28.88;;
52508;SDS011;38420;53.150;6.370;2023-04-09T04:03:25;50.08;;;28.58;;
52508;SDS011;38420;53.150;6.370;2023-04-09T04:05:50;52.00;;;28.90;;
52508;SDS011;38420;53.150;6.370;2023-04-09T04:08:16;55.22;;;30.70;;
52508;SDS011;38420;53.150;6.370;2023-04-09T04:10:42;57.35;;;29.77;;
52508;SDS011;38420;53.150;6.370;2023-04-09T04:13:07;56.60;;;30.02;;
52508;SDS011;38420;53.150;6.370;2023-04-09T04:15:38;54.88;;;29.85;;
52508;SDS011;38420;53.150;6.370;2023-04-09T04:18:05;55.67;;;30.25;;
52508;SDS011;38420;53.150;6.370;2023-04-09T04:20:33;52.88;;;29.35;;
52508;SDS011;38420;53.150;6.370;2023-04-09T04:22:59;59.20;;;31.27;;
52508;SDS011;38420;53.150;6.370;2023-04-09T04:25:25;64.15;;;30.58;;
52508;SDS011;38420;53.150;6.370;2023-04-09T04:27:51;56.97;;;30.65;;
52508;SDS011;38420;53.150;6.370;2023-04-09T04:30:16;56.83;;;30.42;;
52508;SDS011;38420;53.150;6.370;2023-04-09T04:32:42;56.33;;;30.08;;
52508;SDS011;38420;53.150;6.370;2023-04-09T04:35:08;58.20;;;29.65;;
52508;SDS011;38420;53.150;6.370;2023-04-09T04:37:33;61.63;;;31.65;;
52508;SDS011;38420;53.150;6.370;2023-04-09T04:40:02;53.80;;;29.20;;
52508;SDS011;38420;53.150;6.370;2023-04-09T04:42:29;58.80;;;31.35;;
52508;SDS011;38420;53.150;6.370;2023-04-09T04:44:55;59.20;;;31.58;;
52508;SDS011;38420;53.150;6.370;2023-04-09T04:47:20;57.60;;;29.55;;
52508;SDS011;38420;53.150;6.370;2023-04-09T04:49:46;60.95;;;31.52;;
52508;SDS011;38420;53.150;6.370;2023-04-09T04:52:12;57.92;;;30.92;;
52508;SDS011;38420;53.150;6.370;2023-04-09T04:54:37;57.95;;;31.45;;
52508;SDS011;38420;53.150;6.370;2023-04-09T04:57:03;60.70;;;32.15;;
52508;SDS011;38420;53.150;6.370;2023-04-09T04:59:28;58.22;;;31.38;;
52508;SDS011;38420;53.150;6.370;2023-04-09T05:01:54;60.28;;;32.00;;
52508;SDS011;38420;53.150;6.370;2023-04-09T05:04:20;60.38;;;30.70;;
52508;SDS011;38420;53.150;6.370;2023-04-09T05:06:46;55.15;;;29.70;;
52508;SDS011;38420;53.150;6.370;2023-04-09T05:09:11;60.97;;;30.67;;
52508;SDS011;38420;53.150;6.370;2023-04-09T05:11:37;53.65;;;29.55;;
52508;SDS011;38420;53.150;6.370;2023-04-09T05:14:02;51.05;;;29.63;;
52508;SDS011;38420;53.150;6.370;2023-04-09T05:16:30;57.25;;;29.15;;
52508;SDS011;38420;53.150;6.370;2023-04-09T05:18:56;50.78;;;26.17;;
52508;SDS011;38420;53.150;6.370;2023-04-09T05:21:21;50.97;;;28.67;;
52508;SDS011;38420;53.150;6.370;2023-04-09T05:23:47;52.20;;;28.65;;
52508;SDS011;38420;53.150;6.370;2023-04-09T05:26:13;52.92;;;29.40;;
52508;SDS011;38420;53.150;6.370;2023-04-09T05:28:38;54.15;;;29.10;;
52508;SDS011;38420;53.150;6.370;2023-04-09T05:31:04;53.33;;;29.50;;
52508;SDS011;38420;53.150;6.370;2023-04-09T05:33:35;52.30;;;29.58;;
52508;SDS011;38420;53.150;6.370;2023-04-09T05:36:02;56.10;;;30.42;;
52508;SDS011;38420;53.150;6.370;2023-04-09T05:38:28;52.13;;;29.52;;
52508;SDS011;38420;53.150;6.370;2023-04-09T05:40:53;54.20;;;29.65;;
52508;SDS011;38420;53.150;6.370;2023-04-09T05:43:19;51.47;;;28.98;;
52508;SDS011;38420;53.150;6.370;2023-04-09T05:45:45;55.92;;;30.38;;
52508;SDS011;38420;53.150;6.370;2023-04-09T05:48:12;56.05;;;28.38;;
52508;SDS011;38420;53.150;6.370;2023-04-09T05:50:38;47.15;;;26.85;;
52508;SDS011;38420;53.150;6.370;2023-04-09T05:53:03;46.83;;;27.67;;
52508;SDS011;38420;53.150;6.370;2023-04-09T05:55:30;45.33;;;25.30;;
52508;SDS011;38420;53.150;6.370;2023-04-09T05:57:56;44.67;;;26.13;;
52508;SDS011;38420;53.150;6.370;2023-04-09T06:00:22;50.83;;;24.23;;
52508;SDS011;38420;53.150;6.370;2023-04-09T06:02:48;43.63;;;24.73;;
52508;SDS011;38420;53.150;6.370;2023-04-09T06:05:14;46.97;;;23.52;;
52508;SDS011;38420;53.150;6.370;2023-04-09T06:07:40;47.50;;;26.83;;
52508;SDS011;38420;53.150;6.370;2023-04-09T06:10:06;40.05;;;23.63;;
52508;SDS011;38420;53.150;6.370;2023-04-09T06:12:35;39.00;;;23.55;;
52508;SDS011;38420;53.150;6.370;2023-04-09T06:15:00;41.63;;;23.80;;
52508;SDS011;38420;53.150;6.370;2023-04-09T06:17:27;42.30;;;23.55;;
52508;SDS011;38420;53.150;6.370;2023-04-09T06:19:53;40.45;;;24.38;;
52508;SDS011;38420;53.150;6.370;2023-04-09T06:22:19;41.08;;;24.08;;
52508;SDS011;38420;53.150;6.370;2023-04-09T06:24:44;43.22;;;24.42;;
52508;SDS011;38420;53.150;6.370;2023-04-09T06:27:10;42.53;;;24.33;;
52508;SDS011;38420;53.150;6.370;2023-04-09T06:29:36;38.28;;;23.25;;
52508;SDS011;38420;53.150;6.370;2023-04-09T06:32:01;41.35;;;24.08;;
52508;SDS011;38420;53.150;6.370;2023-04-09T06:34:27;40.97;;;24.33;;
52508;SDS011;38420;53.150;6.370;2023-04-09T06:36:53;45.83;;;24.17;;
52508;SDS011;38420;53.150;6.370;2023-04-09T06:39:19;48.40;;;26.38;;
52508;SDS011;38420;53.150;6.370;2023-04-09T06:41:45;45.53;;;26.40;;
52508;SDS011;38420;53.150;6.370;2023-04-09T06:44:11;42.40;;;23.75;;
52508;SDS011;38420;53.150;6.370;2023-04-09T06:46:37;41.13;;;24.35;;
52508;SDS011;38420;53.150;6.370;2023-04-09T06:49:02;41.80;;;24.25;;
52508;SDS011;38420;53.150;6.370;2023-04-09T06:51:28;41.10;;;23.05;;
52508;SDS011;38420;53.150;6.370;2023-04-09T06:53:54;43.05;;;24.92;;
52508;SDS011;38420;53.150;6.370;2023-04-09T06:56:19;42.50;;;24.17;;
52508;SDS011;38420;53.150;6.370;2023-04-09T06:58:45;40.92;;;23.52;;
52508;SDS011;38420;53.150;6.370;2023-04-09T07:01:11;42.78;;;23.60;;
52508;SDS011;38420;53.150;6.370;2023-04-09T07:03:36;42.53;;;22.65;;
52508;SDS011;38420;53.150;6.370;2023-04-09T07:06:02;42.25;;;25.27;;
52508;SDS011;38420;53.150;6.370;2023-04-09T07:08:28;43.97;;;25.00;;
52508;SDS011;38420;53.150;6.370;2023-04-09T07:10:54;46.13;;;24.33;;
52508;SDS011;38420;53.150;6.370;2023-04-09T07:13:20;45.58;;;24.92;;
52508;SDS011;38420;53.150;6.370;2023-04-09T07:15:46;39.58;;;24.23;;
52508;SDS011;38420;53.150;6.370;2023-04-09T07:18:11;41.72;;;24.08;;
52508;SDS011;38420;53.150;6.370;2023-04-09T07:20:37;43.33;;;26.35;;
52508;SDS011;38420;53.150;6.370;2023-04-09T07:23:02;44.38;;;25.30;;
52508;SDS011;38420;53.150;6.370;2023-04-09T07:25:28;48.00;;;26.85;;
52508;SDS011;38420;53.150;6.370;2023-04-09T07:27:54;43.17;;;24.33;;
52508;SDS011;38420;53.150;6.370;2023-04-09T07:30:19;43.45;;;24.52;;
52508;SDS011;38420;53.150;6.370;2023-04-09T07:32:45;40.58;;;24.27;;
52508;SDS011;38420;53.150;6.370;2023-04-09T07:35:11;43.67;;;25.17;;
52508;SDS011;38420;53.150;6.370;2023-04-09T07:37:36;41.03;;;22.60;;
52508;SDS011;38420;53.150;6.370;2023-04-09T07:40:02;39.08;;;23.55;;
52508;SDS011;38420;53.150;6.370;2023-04-09T07:42:28;39.47;;;23.73;;
52508;SDS011;38420;53.150;6.370;2023-04-09T07:44:54;41.83;;;22.88;;
52508;SDS011;38420;53.150;6.370;2023-04-09T07:47:21;40.78;;;23.45;;
52508;SDS011;38420;53.150;6.370;2023-04-09T07:49:47;40.10;;;23.77;;
52508;SDS011;38420;53.150;6.370;2023-04-09T07:52:13;47.05;;;25.38;;
52508;SDS011;38420;53.150;6.370;2023-04-09T07:54:39;42.22;;;24.20;;
52508;SDS011;38420;53.150;6.370;2023-04-09T07:57:05;43.05;;;25.13;;
52508;SDS011;38420;53.150;6.370;2023-04-09T07:59:31;48.60;;;25.08;;
52508;SDS011;38420;53.150;6.370;2023-04-09T08:01:57;44.05;;;24.33;;
52508;SDS011;38420;53.150;6.370;2023-04-09T08:04:23;48.70;;;26.73;;
52508;SDS011;38420;53.150;6.370;2023-04-09T08:06:49;41.65;;;24.40;;
52508;SDS011;38420;53.150;6.370;2023-04-09T08:09:18;49.63;;;26.77;;
52508;SDS011;38420;53.150;6.370;2023-04-09T08:11:44;45.65;;;25.85;;
52508;SDS011;38420;53.150;6.370;2023-04-09T08:14:11;46.28;;;25.23;;
52508;SDS011;38420;53.150;6.370;2023-04-09T08:16:38;45.05;;;26.70;;
52508;SDS011;38420;53.150;6.370;2023-04-09T08:19:06;44.67;;;26.05;;
52508;SDS011;38420;53.150;6.370;2023-04-09T08:21:32;44.67;;;25.92;;
52508;SDS011;38420;53.150;6.370;2023-04-09T08:23:58;46.22;;;27.58;;
52508;SDS011;38420;53.150;6.370;2023-04-09T08:26:28;50.67;;;27.00;;
52508;SDS011;38420;53.150;6.370;2023-04-09T08:28:54;46.72;;;27.83;;
52508;SDS011;38420;53.150;6.370;2023-04-09T08:31:19;48.95;;;27.33;;
52508;SDS011;38420;53.150;6.370;2023-04-09T08:33:45;49.60;;;29.02;;
52508;SDS011;38420;53.150;6.370;2023-04-09T08:36:11;50.90;;;29.85;;
52508;SDS011;38420;53.150;6.370;2023-04-09T08:38:36;52.72;;;30.02;;
52508;SDS011;38420;53.150;6.370;2023-04-09T08:41:02;51.08;;;29.60;;
52508;SDS011;38420;53.150;6.370;2023-04-09T08:43:28;54.17;;;30.05;;
52508;SDS011;38420;53.150;6.370;2023-04-09T08:45:56;52.65;;;29.52;;
52508;SDS011;38420;53.150;6.370;2023-04-09T08:48:23;53.03;;;30.17;;
52508;SDS011;38420;53.150;6.370;2023-04-09T08:50:49;55.13;;;29.45;;
52508;SDS011;38420;53.150;6.370;2023-04-09T08:53:15;54.78;;;31.10;;
52508;SDS011;38420;53.150;6.370;2023-04-09T08:55:44;52.00;;;29.67;;
52508;SDS011;38420;53.150;6.370;2023-04-09T08:58:10;55.05;;;30.23;;
52508;SDS011;38420;53.150;6.370;2023-04-09T09:00:36;51.08;;;28.95;;
52508;SDS011;38420;53.150;6.370;2023-04-09T09:03:03;51.85;;;29.35;;
52508;SDS011;38420;53.150;6.370;2023-04-09T09:05:34;55.05;;;31.17;;
52508;SDS011;38420;53.150;6.370;2023-04-09T09:08:00;56.08;;;30.38;;
52508;SDS011;38420;53.150;6.370;2023-04-09T09:10:35;55.97;;;30.25;;
52508;SDS011;38420;53.150;6.370;2023-04-09T09:13:20;52.28;;;28.00;;
52508;SDS011;38420;53.150;6.370;2023-04-09T09:15:48;54.15;;;29.52;;
52508;SDS011;38420;53.150;6.370;2023-04-09T09:18:20;53.13;;;29.92;;
52508;SDS011;38420;53.150;6.370;2023-04-09T09:21:15;52.08;;;29.83;;
52508;SDS011;38420;53.150;6.370;2023-04-09T09:23:42;52.88;;;29.40;;
52508;SDS011;38420;53.150;6.370;2023-04-09T09:26:14;50.03;;;28.70;;
52508;SDS011;38420;53.150;6.370;2023-04-09T09:28:42;49.33;;;29.17;;
52508;SDS011;38420;53.150;6.370;2023-04-09T09:31:10;50.90;;;29.65;;
52508;SDS011;38420;53.150;6.370;2023-04-09T09:33:36;52.60;;;28.25;;
52508;SDS011;38420;53.150;6.370;2023-04-09T09:36:02;50.28;;;29.52;;
52508;SDS011;38420;53.150;6.370;2023-04-09T09:38:28;51.38;;;30.30;;
52508;SDS011;38420;53.150;6.370;2023-04-09T09:40:55;51.92;;;29.20;;
52508;SDS011;38420;53.150;6.370;2023-04-09T09:43:20;49.58;;;28.80;;
52508;SDS011;38420;53.150;6.370;2023-04-09T09:45:47;52.42;;;30.00;;
52508;SDS011;38420;53.150;6.370;2023-04-09T09:48:12;50.53;;;29.30;;
52508;SDS011;38420;53.150;6.370;2023-04-09T09:50:39;50.85;;;29.45;;
52508;SDS011;38420;53.150;6.370;2023-04-09T09:53:06;44.58;;;27.88;;
52508;SDS011;38420;53.150;6.370;2023-04-09T09:55:38;53.97;;;29.02;;
52508;SDS011;38420;53.150;6.370;2023-04-09T09:58:11;46.58;;;28.55;;
52508;SDS011;38420;53.150;6.370;2023-04-09T10:00:41;48.30;;;27.67;;
52508;SDS011;38420;53.150;6.370;2023-04-09T10:03:14;48.45;;;28.58;;
52508;SDS011;38420;53.150;6.370;2023-04-09T10:05:45;50.45;;;30.20;;
52508;SDS011;38420;53.150;6.370;2023-04-09T10:08:13;49.63;;;29.58;;
52508;SDS011;38420;53.150;6.370;2023-04-09T10:10:39;48.10;;;28.95;;
52508;SDS011;38420;53.150;6.370;2023-04-09T10:13:06;45.75;;;28.08;;
52508;SDS011;38420;53.150;6.370;2023-04-09T10:15:36;46.88;;;27.90;;
52508;SDS011;38420;53.150;6.370;2023-04-09T10:18:02;45.60;;;28.15;;
52508;SDS011;38420;53.150;6.370;2023-04-09T10:20:31;47.47;;;28.27;;
52508;SDS011;38420;53.150;6.370;2023-04-09T10:23:05;51.78;;;31.27;;
52508;SDS011;38420;53.150;6.370;2023-04-09T10:25:38;66.47;;;36.03;;
52508;SDS011;38420;53.150;6.370;2023-04-09T10:28:13;46.20;;;29.20;;
52508;SDS011;38420;53.150;6.370;2023-04-09T10:30:41;43.13;;;25.80;;
52508;SDS011;38420;53.150;6.370;2023-04-09T10:33:11;43.50;;;28.50;;
52508;SDS011;38420;53.150;6.370;2023-04-09T10:35:39;43.03;;;26.83;;
52508;SDS011;38420;53.150;6.370;2023-04-09T10:38:08;44.30;;;26.88;;
52508;SDS011;38420;53.150;6.370;2023-04-09T10:40:41;39.22;;;26.02;;
52508;SDS011;38420;53.150;6.370;2023-04-09T10:43:11;42.08;;;26.55;;
52508;SDS011;38420;53.150;6.370;2023-04-09T10:45:39;43.72;;;26.33;;
52508;SDS011;38420;53.150;6.370;2023-04-09T10:48:09;42.58;;;26.00;;
52508;SDS011;38420;53.150;6.370;2023-04-09T10:50:37;41.38;;;26.42;;
52508;SDS011;38420;53.150;6.370;2023-04-09T10:53:03;39.35;;;25.65;;
52508;SDS011;38420;53.150;6.370;2023-04-09T10:58:05;41.90;;;25.85;;
52508;SDS011;38420;53.150;6.370;2023-04-09T11:00:38;42.63;;;26.73;;
52508;SDS011;38420;53.150;6.370;2023-04-09T11:10:47;37.75;;;24.42;;
52508;SDS011;38420;53.150;6.370;2023-04-09T11:13:14;35.50;;;23.38;;
52508;SDS011;38420;53.150;6.370;2023-04-09T11:15:42;38.13;;;24.25;;
52508;SDS011;38420;53.150;6.370;2023-04-09T11:18:12;39.85;;;24.08;;
52508;SDS011;38420;53.150;6.370;2023-04-09T11:20:46;36.90;;;23.45;;
52508;SDS011;38420;53.150;6.370;2023-04-09T11:23:12;38.53;;;23.42;;
52508;SDS011;38420;53.150;6.370;2023-04-09T11:25:38;35.35;;;23.05;;
52508;SDS011;38420;53.150;6.370;2023-04-09T11:28:03;38.10;;;23.40;;
52508;SDS011;38420;53.150;6.370;2023-04-09T11:30:32;36.25;;;23.48;;
52508;SDS011;38420;53.150;6.370;2023-04-09T11:32:58;34.75;;;21.73;;
52508;SDS011;38420;53.150;6.370;2023-04-09T11:35:25;34.08;;;22.85;;
52508;SDS011;38420;53.150;6.370;2023-04-09T11:37:50;35.47;;;22.42;;
52508;SDS011;38420;53.150;6.370;2023-04-09T11:40:17;34.50;;;22.20;;
52508;SDS011;38420;53.150;6.370;2023-04-09T11:42:44;30.80;;;21.38;;
52508;SDS011;38420;53.150;6.370;2023-04-09T11:45:11;32.38;;;21.30;;
52508;SDS011;38420;53.150;6.370;2023-04-09T11:47:37;30.13;;;20.30;;
52508;SDS011;38420;53.150;6.370;2023-04-09T11:50:06;35.28;;;22.80;;
52508;SDS011;38420;53.150;6.370;2023-04-09T11:52:32;31.35;;;20.10;;
52508;SDS011;38420;53.150;6.370;2023-04-09T11:55:00;31.38;;;20.60;;
52508;SDS011;38420;53.150;6.370;2023-04-09T12:00:17;30.58;;;21.52;;
52508;SDS011;38420;53.150;6.370;2023-04-09T12:02:45;30.45;;;20.70;;
52508;SDS011;38420;53.150;6.370;2023-04-09T12:05:22;33.15;;;21.58;;
52508;SDS011;38420;53.150;6.370;2023-04-09T12:07:50;33.47;;;21.98;;
52508;SDS011;38420;53.150;6.370;2023-04-09T12:10:16;27.67;;;18.65;;
52508;SDS011;38420;53.150;6.370;2023-04-09T12:12:44;32.60;;;21.30;;
52508;SDS011;38420;53.150;6.370;2023-04-09T12:17:42;27.38;;;18.08;;
52508;SDS011;38420;53.150;6.370;2023-04-09T12:20:10;28.67;;;18.85;;
52508;SDS011;38420;53.150;6.370;2023-04-09T12:22:36;30.73;;;21.70;;
52508;SDS011;38420;53.150;6.370;2023-04-09T12:25:05;26.58;;;18.80;;
52508;SDS011;38420;53.150;6.370;2023-04-09T12:27:31;24.27;;;16.40;;
52508;SDS011;38420;53.150;6.370;2023-04-09T12:29:56;27.33;;;18.17;;
52508;SDS011;38420;53.150;6.370;2023-04-09T12:32:22;26.10;;;17.42;;
52508;SDS011;38420;53.150;6.370;2023-04-09T12:34:48;28.17;;;18.58;;
52508;SDS011;38420;53.150;6.370;2023-04-09T12:37:14;28.58;;;17.98;;
52508;SDS011;38420;53.150;6.370;2023-04-09T12:39:39;25.88;;;17.90;;
52508;SDS011;38420;53.150;6.370;2023-04-09T12:42:05;27.75;;;18.27;;
52508;SDS011;38420;53.150;6.370;2023-04-09T12:44:31;26.77;;;18.08;;
52508;SDS011;38420;53.150;6.370;2023-04-09T12:46:57;27.13;;;16.95;;
52508;SDS011;38420;53.150;6.370;2023-04-09T12:49:22;28.17;;;19.33;;
52508;SDS011;38420;53.150;6.370;2023-04-09T12:51:48;27.13;;;17.27;;
52508;SDS011;38420;53.150;6.370;2023-04-09T12:54:15;23.42;;;16.58;;
52508;SDS011;38420;53.150;6.370;2023-04-09T12:56:41;23.95;;;16.85;;
52508;SDS011;38420;53.150;6.370;2023-04-09T12:59:07;27.15;;;17.73;;
52508;SDS011;38420;53.150;6.370;2023-04-09T13:01:32;25.23;;;18.45;;
52508;SDS011;38420;53.150;6.370;2023-04-09T13:03:58;25.90;;;17.05;;
52508;SDS011;38420;53.150;6.370;2023-04-09T13:06:23;27.70;;;18.77;;
52508;SDS011;38420;53.150;6.370;2023-04-09T13:08:49;25.27;;;17.80;;
52508;SDS011;38420;53.150;6.370;2023-04-09T13:11:15;26.48;;;18.27;;
52508;SDS011;38420;53.150;6.370;2023-04-09T13:13:40;27.05;;;17.35;;
52508;SDS011;38420;53.150;6.370;2023-04-09T13:16:06;26.38;;;17.98;;
52508;SDS011;38420;53.150;6.370;2023-04-09T13:18:33;24.85;;;17.70;;
52508;SDS011;38420;53.150;6.370;2023-04-09T13:20:58;26.10;;;19.13;;
52508;SDS011;38420;53.150;6.370;2023-04-09T13:23:24;24.05;;;17.10;;
52508;SDS011;38420;53.150;6.370;2023-04-09T13:25:49;23.92;;;17.55;;
52508;SDS011;38420;53.150;6.370;2023-04-09T13:28:15;25.38;;;18.27;;
52508;SDS011;38420;53.150;6.370;2023-04-09T13:30:40;25.65;;;17.45;;
52508;SDS011;38420;53.150;6.370;2023-04-09T13:33:06;22.98;;;16.58;;
52508;SDS011;38420;53.150;6.370;2023-04-09T13:35:32;26.60;;;17.42;;
52508;SDS011;38420;53.150;6.370;2023-04-09T13:37:57;22.33;;;15.90;;
52508;SDS011;38420;53.150;6.370;2023-04-09T13:40:23;24.88;;;16.63;;
52508;SDS011;38420;53.150;6.370;2023-04-09T13:42:48;27.27;;;17.60;;
52508;SDS011;38420;53.150;6.370;2023-04-09T13:45:14;25.70;;;17.55;;
52508;SDS011;38420;53.150;6.370;2023-04-09T13:47:40;23.42;;;16.70;;
52508;SDS011;38420;53.150;6.370;2023-04-09T13:50:07;24.70;;;17.27;;
52508;SDS011;38420;53.150;6.370;2023-04-09T13:52:34;22.08;;;16.48;;
52508;SDS011;38420;53.150;6.370;2023-04-09T13:55:00;25.40;;;17.23;;
52508;SDS011;38420;53.150;6.370;2023-04-09T13:57:25;22.40;;;16.23;;
52508;SDS011;38420;53.150;6.370;2023-04-09T13:59:51;24.42;;;15.55;;
52508;SDS011;38420;53.150;6.370;2023-04-09T14:02:16;23.27;;;16.42;;
52508;SDS011;38420;53.150;6.370;2023-04-09T14:04:43;24.75;;;17.42;;
52508;SDS011;38420;53.150;6.370;2023-04-09T14:07:08;26.33;;;17.48;;
52508;SDS011;38420;53.150;6.370;2023-04-09T14:09:34;25.92;;;16.58;;
52508;SDS011;38420;53.150;6.370;2023-04-09T14:11:59;25.02;;;17.35;;
52508;SDS011;38420;53.150;6.370;2023-04-09T14:14:25;28.38;;;16.95;;
52508;SDS011;38420;53.150;6.370;2023-04-09T14:16:51;22.95;;;16.40;;
52508;SDS011;38420;53.150;6.370;2023-04-09T14:19:17;23.60;;;15.90;;
52508;SDS011;38420;53.150;6.370;2023-04-09T14:21:42;25.33;;;17.48;;
52508;SDS011;38420;53.150;6.370;2023-04-09T14:24:08;24.63;;;16.90;;
52508;SDS011;38420;53.150;6.370;2023-04-09T14:26:34;23.08;;;16.08;;
52508;SDS011;38420;53.150;6.370;2023-04-09T14:28:59;22.63;;;15.85;;
52508;SDS011;38420;53.150;6.370;2023-04-09T14:31:25;26.13;;;16.80;;
52508;SDS011;38420;53.150;6.370;2023-04-09T14:33:51;23.52;;;16.88;;
52508;SDS011;38420;53.150;6.370;2023-04-09T14:36:16;23.30;;;16.52;;
52508;SDS011;38420;53.150;6.370;2023-04-09T14:38:42;25.58;;;17.27;;